Headquarters, Valles Caldera, New Mexico Weather observations

Data are for 10 minute period ending at time listed.
 Day   Time   Solar   Ave.   Ave.  Ave.  Vector  Max.   Baro.   Total    
  of    of     Rad.   Air    Rel.  Wind   Wind   Wind  Press.  Precip.   
Year   Day            Temp.  Hum.  Speed  Dir.   Gust                    
2015   (MST)  Kw/m2    F      %     mph   deg.    mph    mb.     in.     
-------------------------------------------------------------------------
 144    6:20   0.09   35.7    84    3.1   354     6.0   736.2    0.00 
 144    6:30   0.07   36.5    82    5.9   183     9.0   736.2    0.00 
 144    6:40   0.12   38.2    79    6.8   193    10.2   736.1    0.00 
 144    6:50   0.09   38.8    77    6.0   204    10.8   736.1    0.00 
 144    7:00   0.10   38.6    76    7.0   194    13.1   736.0    0.00 
 144    7:10   0.13   39.1    75    6.7   215    15.5   736.1    0.00 
 144    7:20   0.10   39.5    75    6.8   199    14.9   736.1    0.00 
 144    7:30   0.12   38.8    76    9.4   196    13.1   736.1    0.00 
 144    7:40   0.19   39.7    75    8.8   192    16.1   736.1    0.00 
 144    7:50   0.20   40.2    73    9.4   197    17.3   736.2    0.00 
 144    8:00   0.14   40.6    72    8.3   203    15.5   736.3    0.00 
 144    8:10   0.12   39.9    74    9.6   197    19.1   736.3    0.00 
 144    8:20   0.43   41.7    73   10.0   197    19.1   736.3    0.00 
 144    8:30   0.28   42.7    69    9.7   204    17.3   736.3    0.00 
 144    8:40   0.21   42.5    68    9.3   217    17.3   736.4    0.00 
 144    8:50   0.46   44.4    65    9.6   226    17.3   736.4    0.00 
 144    9:00   0.19   43.3    66   10.0   208    16.7   736.6    0.00 
 144    9:10   0.29   43.2    66    8.3   211    16.1   736.5    0.00 
 144    9:20   0.23   43.7    64    9.3   214    16.7   736.4    0.00 
 144    9:30   0.20   42.9    66   10.3   205    18.5   736.4    0.00 
 144    9:40   0.26   41.5    73    9.8   234    23.9   736.4    0.01 
 144    9:50   0.20   40.5    77   11.3   236    22.1   736.5    0.00 
 144   10:00   0.27   39.5    81    9.3   229    17.9   736.5    0.01 
 144   10:10   0.37   40.0    83    9.5   220    20.3   736.6    0.01 
 144   10:20   0.75   42.1    83   11.2   227    20.9   736.4    0.00 
 144   10:30   0.72   42.7    80   12.0   236    21.5   736.5    0.00 
 144   10:40   0.76   43.7    78   12.2   232    18.5   736.6    0.00 
 144   10:50   0.58   44.1    73   11.7   231    19.7   736.7    0.00 
 144   11:00   0.59   43.9    73   10.6   234    20.3   736.6    0.00 
 144   11:10   0.75   45.2    71   10.6   231    18.5   736.5    0.00 
 144   11:20   0.79   46.4    69   11.2   218    22.7   736.6    0.00 
 144   11:30   0.65   46.6    64    9.6   256    18.5   736.6    0.00 
 144   11:40   0.65   46.9    64    7.4   226    14.3   736.7    0.00 
 144   11:50   0.36   45.3    66    8.8   274    20.3   736.8    0.00 
 144   12:00   0.51   43.6    73    8.5   261    17.3   736.8    0.00 
 144   12:10   0.44   44.2    74    7.6   259    12.5   736.8    0.00 
 144   12:20   0.41   43.8    73    9.7   246    17.3   736.8    0.00 
 144   12:30   0.48   42.8    76    9.9   250    20.3   736.7    0.00 
 144   12:40   0.59   43.3    75    7.9   260    15.5   736.7    0.01 
 144   12:50   0.86   46.0    73    8.5   243    15.5   736.5    0.00 
 144   13:00   0.84   47.2    64    9.7   262    19.7   736.4    0.00 
 144   13:10   0.64   47.5    60   10.5   244    22.1   736.3    0.00 
 144   13:20   0.45   46.0    62   11.5   257    26.2   736.3    0.00 
 144   13:30   0.60   46.6    60   12.2   257    21.5   736.2    0.00 
 144   13:40   0.47   46.8    60   10.8   252    20.3   736.1    0.00 
 144   13:50   0.81   47.6    59   10.9   246    25.0   736.0    0.00 
 144   14:00   0.80   50.0    54   10.7   219    19.1   735.9    0.00 
 144   14:10   0.82   50.1    53   12.0   211    22.7   735.9    0.00 
 144   14:20   0.81   50.5    52   12.3   238    23.3   736.0    0.00 
 144   14:30   0.72   50.1    51   14.4   244    22.7   736.0    0.00 
 144   14:40   0.63   49.4    54   10.2   241    19.7   736.1    0.00 
 144   14:50   0.46   50.0    53    9.4   227    20.3   736.2    0.00 
 144   15:00   0.19   47.4    57   11.2   244    18.5   736.2    0.00 
 144   15:10   0.69   47.6    57   11.0   252    20.3   736.1    0.00 
 144   15:20   0.38   48.4    54    9.8   255    19.1   736.0    0.00 
 144   15:30   0.68   49.4    53   10.2   252    22.1   735.9    0.00 
 144   15:40   0.23   49.1    52   10.9   240    19.7   735.9    0.00 
 144   15:50   0.14   46.5    56    9.5   245    17.9   735.8    0.00 
 144   16:00   0.21   46.3    58    9.1   244    20.3   735.7    0.00 
 144   16:10   0.43   48.3    57    8.0   221    16.1   735.8    0.00 
 144   16:20   0.12   46.3    64   11.8   223    22.1   735.8    0.00 
 144   16:30   0.24   42.3    78   12.1   221    22.1   736.0    0.00 
 144   16:40   0.47   43.4    78    8.6   214    13.1   735.7    0.00 
 144   16:50   0.37   45.1    73   11.2   200    17.3   735.5    0.00 
 144   17:00   0.29   46.2    67    7.7   207    15.5   735.5    0.00 
 144   17:10   0.18   46.4    67    6.9   189    14.3   735.4    0.00 
 144   17:20   0.22   46.3    64    6.0   179    10.8   735.4    0.00 
 144   17:30   0.20   47.0    60    3.7   150     7.2   735.4    0.00 
 144   17:40   0.21   47.7    58    2.7   233     7.8   735.4    0.00 
 144   17:50   0.08   47.5    56    2.9    59     6.0   735.4    0.00 
 144   18:00   0.06   46.4    59    2.9   207     7.8   735.5    0.00 
 144   18:10   0.07   46.0    60    2.1   150     4.8   735.5    0.00 
 144   18:20   0.07   45.7    62    2.9   129     7.8   735.6    0.00 
 144   18:30   0.06   45.5    64    2.1    43     4.2   735.6    0.00 
 144   18:40   0.03   44.9    65    5.1    38    10.8   735.6    0.00 
 144   18:50   0.02   44.3    64    5.5     3    10.8   735.6    0.00 
 144   19:00   0.01   43.9    64    3.6   333     7.2   735.7    0.00 
 144   19:10   0.00   43.4    65    4.4   347     9.0   735.9    0.00 
 144   19:20   0.00   43.2    66    3.7    10     8.4   735.9    0.00 
 144   19:30   0.00   42.4    68    2.6   311     6.0   735.9    0.00 
 144   19:40   0.00   40.2    74    3.2   276     5.4   735.9    0.00 
 144   19:50   0.00   39.7    74    3.2   234     7.2   736.0    0.00 
 144   20:00   0.00   38.3    78    4.0   261     6.0   736.0    0.00 
 144   20:10   0.00   37.5    79    3.4   278     4.8   736.0    0.00 
 144   20:20   0.00   37.2    80    4.4   251     6.6   736.1    0.00 
 144   20:30   0.00   36.3    81    5.6   251     7.2   736.3    0.00 
 144   20:40   0.00   37.1    79    4.9   259     7.2   736.4    0.00 
 144   20:50   0.00   36.4    80    5.1   258     6.0   736.5    0.00 
 144   21:00   0.00   36.0    82    5.9   261     7.8   736.7    0.00 
 144   21:10   0.00   35.9    81    5.3   252     9.0   736.7    0.00 
 144   21:20   0.00   36.5    80    5.6   249     7.2   736.7    0.00 
 144   21:30   0.00   36.2    82    4.9   258     7.2   736.8    0.00 
 144   21:40   0.00   37.0    81    3.8   265     6.6   736.9    0.00 
 144   21:50   0.00   36.4    82    3.2   296     4.8   737.0    0.00 
 144   22:00   0.00   35.3    84    1.7   334     4.2   737.1    0.00 
 144   22:10   0.00   35.1    85    3.1   279     6.6   737.1    0.00 
 144   22:20   0.00   34.2    86    3.5   262     5.4   737.0    0.00 
 144   22:30   0.00   34.2    87    3.3   259     6.0   736.9    0.00 
 144   22:40   0.00   35.8    85    3.7   274     6.6   736.9    0.00 
 144   22:50   0.00   36.4    82    3.1   289     9.6   737.0    0.00 
 144   23:00   0.00   35.3    83    1.8   107     3.6   737.0    0.00 
 144   23:10   0.00   34.3    86    2.6    17     3.6   736.9    0.00 
 144   23:20   0.00   33.7    87    2.5   308     4.2   736.9    0.00 
 144   23:30   0.00   33.6    87    2.9   311     5.4   736.8    0.00 
 144   23:40   0.00   34.2    88    3.0   279     6.6   736.7    0.00 
 144   23:50   0.00   34.4    86    2.8   358     5.4   736.7    0.00 
 145    0:00   0.00   34.2    86    2.4    62     4.2   736.7    0.00 
 145    0:10   0.00   33.8    88    2.0   119     4.8   736.7    0.00 
 145    0:20   0.00   33.7    88    3.0   322     9.0   736.8    0.00 
 145    0:30   0.00   35.0    88    3.3   326     7.8   736.7    0.00 
 145    0:40   0.00   33.9    87    3.2    14     6.0   736.7    0.00 
 145    0:50   0.00   34.2    90    3.0   355     4.8   736.6    0.00 
 145    1:00   0.00   34.3    89    2.9   337     4.8   736.6    0.00 
 145    1:10   0.00   33.5    89    0.7    94     2.4   736.6    0.00 
 145    1:20   0.00   33.5    90    1.8   268     3.6   736.6    0.00 
 145    1:30   0.00   33.7    91    1.8   207     4.2   736.6    0.00 
 145    1:40   0.00   34.5    92    3.2   232     5.4   736.6    0.00 
 145    1:50   0.00   35.9    91    1.9   318     4.8   736.5    0.00 
 145    2:00   0.00   35.4    89    3.2   308     5.4   736.4    0.00 
 145    2:10   0.00   35.1    90    2.3   191     4.2   736.4    0.00 
 145    2:20   0.00   34.5    90    3.7   315     6.0   736.4    0.00 
 145    2:30   0.00   34.5    90    1.4   227     3.6   736.4    0.00 
 145    2:40   0.00   34.4    91    2.4   321     4.2   736.5    0.00 
 145    2:50   0.00   35.3    91    1.8    13     4.2   736.5    0.00 
 145    3:00   0.00   35.5    90    2.6   225     4.8   736.5    0.00 
 145    3:10   0.00   35.3    91    2.8   255     4.8   736.5    0.00 
 145    3:20   0.00   35.9    90    1.7   266     3.0   736.4    0.00 
 145    3:30   0.00   35.6    90    3.1   229     4.2   736.4    0.00 
 145    3:40   0.00   35.7    90    1.2   272     3.0   736.5    0.00 
 145    3:50   0.00   36.0    90    0.8    28     2.4   736.4    0.00 
 145    4:00   0.00   36.2    90    1.6   156     4.2   736.4    0.00 
 145    4:10   0.00   35.8    90    2.8   315     4.8   736.3    0.00 
 145    4:20   0.00   35.3    90    1.9   286     4.2   736.2    0.00 
 145    4:30   0.00   34.3    90    3.2   312     4.8   736.2    0.00 
 145    4:40   0.00   33.5    91    1.9   231     3.6   736.3    0.00 
 145    4:50   0.00   33.9    92    2.8   252     4.8   736.4    0.00 
 145    5:00   0.01   34.4    92    2.8   302     5.4   736.5    0.00 
 145    5:10   0.01   33.9    91    3.9   264     5.4   736.6    0.00 
 145    5:20   0.03   32.5    90    4.6   224     6.6   736.6    0.00 
 145    5:30   0.06   35.3    89    2.8   255     4.2   736.6    0.00 
 145    5:40   0.09   37.6    83    1.7   305     3.0   736.6    0.00 
 145    5:50   0.12   39.8    78    2.7   214     4.2   736.6    0.00 
 145    6:00   0.14   40.8    76    2.0   194     3.6   736.6    0.00 
 145    6:10   0.16   41.4    76    2.3   147     3.6   736.7    0.00 

Return to Headquarters, Valles Caldera graphs page.


Western Regional Climate Center,wrcc@dri.edu